• Join FlightAware (Why Join?)
  • Login
  • US Flag 
Rudolph Flight #1: Arrived! 
11:13AM EST


 

Airport Tracker/Info


-or-


 

Live Flight TrackerFlight Track Log ✈ KFS77 ✈ 06-May-2013 ✈ KSTP - KGSO

Flight Track Log - Related Links

Times and Time Zones

All times are in EDT time to prevent confusion due to time zone crossing. See the KFS77 flight status page for this flight to view local times or setup timezone preferences in your user account.

Time Position Orientation Groundspeed Altitude Reporting Facility
EDT Latitude Longitude Course Direction KTS MPH feet Rate Location/Type
05:37PM 44.9167 -92.9833 63° Northeast 203 234 2,500  Level Minneapolis TRACON
05:39PM 44.9664 -92.8447 63° Northeast 219 252 4,000 1,380 Climbing Minneapolis Center
05:40PM 44.9786 -92.7539 79° East 241 277 6,600 2,280 Climbing Minneapolis Center
05:41PM 44.9147 -92.7169 158° South 274 315 8,800 2,040 Climbing Minneapolis Center
05:42PM 44.8364 -92.7414 192° South 287 330 11,300 2,520 Climbing Minneapolis Center
05:43PM 44.7361 -92.7603 188° South 301 346 14,600 2,280 Climbing Minneapolis Center
05:45PM 44.6435 -92.5890 127° Southeast  Level Estimated
05:48PM 44.2664 -92.8231 128° Southeast 354 407 25,800  Level Minneapolis Center
05:49PM 44.1989 -92.7253 134° Southeast 354 407 27,800 1,800 Climbing Minneapolis Center
05:50PM 44.1336 -92.6264 133° Southeast 348 400 29,600 1,380 Climbing Minneapolis Center
05:51PM 44.0556 -92.4994 131° Southeast 358 412 30,700 840 Climbing Minneapolis Center
05:52PM 44.1769 -91.7405 127° Southeast  Level Estimated
05:52PM 43.9847 -92.3897 132° Southeast 378 435 31,400  Level Minneapolis Center
05:53PM 44.1097 -91.6204 128° Southeast  Level Estimated
05:53PM 43.9025 -92.2914 139° Southeast 390 449 32,300  Level Minneapolis Center
05:54PM 44.0424 -91.5006 128° Southeast  Level Estimated
05:54PM 43.8378 -92.2086 137° Southeast 394 453 33,300  Level Minneapolis Center
05:56PM 43.7397 -92.0756 136° Southeast 386 444 34,800 780 Climbing Minneapolis Center
05:57PM 43.6556 -91.9789 140° Southeast 397 457 35,000 60 Climbing Minneapolis Center
05:58PM 43.5681 -91.8786 140° Southeast 410 472 35,000  Level Minneapolis Center
05:59PM 43.4822 -91.7764 139° Southeast 409 471 35,000  Level Minneapolis Center
06:00PM 43.3806 -91.6531 139° Southeast 408 470 35,000  Level Minneapolis Center
06:02PM 43.1817 -91.4478 143° Southeast 406 467 35,000  Level Chicago Center
06:03PM 43.1203 -91.3164 123° Southeast 409 471 35,000  Level Chicago Center
06:04PM 43.0689 -91.2108 124° Southeast 411 473 35,000  Level Minneapolis Center
06:06PM 42.9083 -90.9472 130° Southeast 411 473 35,000  Level Minneapolis Center
06:07PM 42.8386 -90.8261 128° Southeast 412 474 35,000  Level Chicago Center
06:08PM 42.7531 -90.6819 129° Southeast 412 474 35,000  Level Chicago Center
06:09PM 42.6817 -90.5611 129° Southeast 412 474 35,000  Level Chicago Center
06:10PM 42.6094 -90.4414 129° Southeast 413 475 35,000  Level Chicago Center
06:11PM 42.5383 -90.3211 129° Southeast 410 472 35,000  Level Chicago Center
06:12PM 42.4650 -90.2017 130° Southeast 414 476 35,000  Level Chicago Center
06:13PM 42.3781 -90.0589 129° Southeast 412 474 35,000  Level Chicago Center
06:15PM 42.2941 -89.9128 128° Southeast  Level FlightAware Approximate
06:15PM 42.1997 -89.8400 128° Southeast 417 480 35,000  Level Chicago Center
06:16PM 42.1092 -89.7442 142° Southeast 415 478 35,000  Level Chicago Center
06:18PM 42.0541 -89.5912 116° Southeast  Level FlightAware Approximate
06:18PM 41.9539 -89.5261 116° Southeast 410 472 35,000  Level Chicago Center
06:19PM 41.8894 -89.3992 124° Southeast 414 476 35,000  Level Chicago Center
06:20PM 41.8064 -89.2531 127° Southeast 414 476 35,000  Level Chicago Center
06:22PM 41.7344 -89.1344 129° Southeast 411 473 35,000  Level Chicago Center
06:24PM 41.6032 -88.9118 128° Southeast  Level FlightAware Approximate
06:25PM 41.5186 -88.7819 128° Southeast 413 475 35,000  Level Chicago Center
06:26PM 41.4364 -88.6372 127° Southeast 414 476 35,000  Level Chicago Center
06:27PM 41.3647 -88.5194 129° Southeast 414 476 35,000  Level Chicago Center
06:28PM 41.2931 -88.4042 130° Southeast 412 474 35,000  Level Chicago Center
06:29PM 41.2217 -88.2881 129° Southeast 412 474 35,000  Level Chicago Center
06:31PM 41.0797 -88.0603 130° Southeast 414 476 35,000  Level Indianapolis Center
06:32PM 41.0061 -87.9397 129° Southeast 420 483 35,100  Climbing Indianapolis Center
06:33PM 40.9194 -87.7975 129° Southeast 420 483 35,000 -60 Descending Indianapolis Center
06:35PM 40.8041 -87.6301 132° Southeast  Level FlightAware Approximate
06:35PM 40.7531 -87.5342 132° Southeast 424 488 35,000  Level Chicago Center
06:36PM 40.6786 -87.4147 129° Southeast 426 490 35,000  Level Chicago Center
06:37PM 40.6028 -87.2969 130° Southeast 425 489 35,000  Level Chicago Center
06:38PM 40.5278 -87.1786 130° Southeast 425 489 35,000  Level Chicago Center
06:39PM 40.4372 -87.0403 131° Southeast 425 489 35,000  Level Chicago Center
06:41PM 40.3022 -86.8300 130° Southeast 415 478 35,000  Level Indianapolis Center
06:42PM 40.2136 -86.6919 130° Southeast 418 481 35,000  Level Chicago Center
06:43PM 40.1400 -86.5797 131° Southeast 411 473 35,000  Level Chicago Center
06:44PM 40.0661 -86.4667 130° Southeast 410 472 35,000  Level Chicago Center
06:45PM 39.9783 -86.3319 130° Southeast 401 461 35,000  Level Chicago Center
06:46PM 39.9053 -86.2178 130° Southeast 404 465 35,000  Level Chicago Center
06:47PM 39.8300 -86.1047 131° Southeast 403 464 35,000  Level Chicago Center
06:48PM 39.7708 -86.0158 131° Southeast 402 463 35,000  Level Indianapolis Center
06:50PM 39.6231 -85.7975 131° Southeast 401 461 35,000  Level Indianapolis Center
06:52PM 39.5056 -85.5575 122° Southeast 396 456 35,000  Level Indianapolis Center
06:53PM 39.4492 -85.4086 116° Southeast 388 447 35,000  Level Indianapolis Center
06:54PM 39.4022 -85.2847 116° Southeast 385 443 35,000  Level Indianapolis Center
06:55PM 39.3575 -85.1631 115° Southeast 378 435 35,000  Level Indianapolis Center
06:56PM 39.3125 -85.0411 115° Southeast 378 435 35,000  Level Indianapolis Center
06:58PM 39.2463 -84.9274 127° Southeast  Level Estimated
06:59PM 39.1544 -84.8414 127° Southeast 373 429 35,000  Level Indianapolis Center
07:00PM 39.0875 -84.7378 130° Southeast 382 440 35,000  Level Indianapolis Center
07:02PM 38.9651 -84.5268 127° Southeast  Level Estimated
07:03PM 38.8742 -84.4567 127° Southeast 363 418 35,000  Level Indianapolis Center
07:04PM 38.7958 -84.3450 132° Southeast 358 412 35,000 -240 Level Indianapolis Center
07:06PM 38.6725 -84.1699 134° Southeast  Level FlightAware Approximate
07:11PM 38.2883 -83.6736 133° Southeast 380 437 33,300  Level Indianapolis Center
07:12PM 38.2142 -83.5761 134° Southeast 382 440 33,000 -120 Descending Indianapolis Center
07:13PM 38.1762 -83.5210 134° Southeast  Level FlightAware Approximate
07:14PM 38.1057 -83.4347 136° Southeast  Level FlightAware Approximate
07:14PM 38.1050 -83.4290 135° Southeast  Level FlightAware Approximate
07:15PM 38.0338 -83.3372 135° Southeast  Level FlightAware Approximate
07:15PM 37.9978 -83.2950 135° Southeast 367 422 33,000  Level Indianapolis Center
07:16PM 37.9558 -83.2482 138° Southeast  Level FlightAware Approximate
07:17PM 37.8926 -83.1582 134° Southeast  Level FlightAware Approximate
07:17PM 37.8840 -83.1515 133° Southeast  Level FlightAware Approximate
07:17PM 37.8417 -83.0919 134° Southeast 372 428 33,000  Level Indianapolis Center
07:18PM 37.7692 -82.9969 134° Southeast 374 430 33,000 -420 Level Indianapolis Center
07:19PM 37.6950 -82.9008 134° Southeast 379 436 32,200 -1,440 Descending Indianapolis Center
07:21PM 37.6002 -82.7877 135° Southeast  Level FlightAware Approximate
07:21PM 37.5250 -82.6914 136° Southeast 396 456 28,500  Level Atlanta Center
07:22PM 37.4614 -82.6008 131° Southeast 402 463 27,700 -720 Descending Atlanta Center
07:23PM 37.3872 -82.5050 134° Southeast 389 448 27,100 -360 Descending Indianapolis Center
07:24PM 37.2967 -82.3956 136° Southeast 386 444 27,000 -60 Descending Indianapolis Center
07:25PM 37.2325 -82.3158 135° Southeast 381 438 27,000  Level Atlanta Center
07:26PM 37.1561 -82.2211 135° Southeast 386 444 27,000  Level Atlanta Center
07:27PM 37.0797 -82.1267 135° Southeast 381 438 27,000  Level Atlanta Center
07:28PM 37.0053 -82.0322 135° Southeast 381 438 27,000 -480 Level Atlanta Center
07:29PM 36.9175 -81.9211 135° Southeast 387 445 26,000 -1,440 Descending Indianapolis Center
07:31PM 36.8344 -82.0411 229° Southwest  Level FlightAware Approximate
07:31PM 36.7644 -81.7353 229° Southwest 412 474 22,800  Level Atlanta Center
07:32PM 36.6897 -81.6364 133° Southeast 404 465 21,000 -900 Descending Atlanta Center
07:33PM 36.6125 -81.5378 134° Southeast 378 435 21,000 -60 Level Atlanta Center
07:34PM 36.5506 -81.4622 136° Southeast 338 389 20,900 -420 Descending Atlanta Center
07:36PM 36.4072 -81.2992 138° Southeast 348 400 19,900 -960 Descending Atlanta Center
07:37PM 36.3472 -81.2214 134° Southeast 354 407 18,100 -1,740 Descending Atlanta Center
07:38PM 36.2786 -81.1439 138° Southeast 342 394 16,500 -1,680 Descending Atlanta Center
07:39PM 36.2061 -81.0797 144° Southeast 321 369 14,800 -1,500 Descending Atlanta Center
07:40PM 36.1336 -81.0181 146° Southeast 316 364 13,500 -1,260 Descending Atlanta Center
07:41PM 36.0633 -80.9564 145° Southeast 316 364 12,300 -1,200 Descending Atlanta Center
07:42PM 35.9906 -80.8847 141° Southeast 316 364 11,200 -1,020 Descending Atlanta Center
07:43PM 35.9386 -80.8097 131° Southeast 295 339 10,300 -780 Descending Atlanta Center
07:44PM 35.8931 -80.7397 129° Southeast 274 315 9,700 -600 Descending Atlanta Center
07:45PM 35.8717 -80.6511 107° East 259 298 9,100 -240 Descending Atlanta Center
07:47PM 35.9191 -80.5058 68° East  Level Estimated
07:47PM 35.9314 -80.4717 68° East 270 311 9,000  Level Atlanta Center
07:48PM 35.9600 -80.3831 68° East 270 311 8,700 -900 Descending Atlanta Center
07:49PM 35.9914 -80.3150 60° Northeast 255 293 7,300 -2,100 Descending Atlanta Center
07:50PM 36.0000 -80.2531 80° East 226 260 4,500 -2,820 Descending Atlanta Center
07:52PM 36.0500 -80.1114 90° East  Level FlightAware Approximate
07:59PM 36.1000 -79.9333 22° Northeast  Level FlightAware Approximate
08:00PM 36.1013 -79.9411 22° Northeast  Level Estimated
08:01PM 36.1000 -79.9333 22° Northeast  Level FlightAware Approximate
08:02PM 36.1013 -79.9411 22° Northeast  Level Estimated
08:03PM 36.1000 -79.9333 22° Northeast  Level FlightAware Approximate
08:04PM 36.1013 -79.9411 22° Northeast  Level Estimated
08:05PM 36.1000 -79.9333 22° Northeast  Level FlightAware Approximate
08:06PM 36.1013 -79.9411 22° Northeast  Level Estimated
08:07PM 36.1000 -79.9333 22° Northeast  Level FlightAware Approximate
08:08PM 36.1013 -79.9411 22° Northeast  Level Estimated
08:09PM 36.1000 -79.9333 22° Northeast  Level FlightAware Approximate
08:10PM 36.1013 -79.9411 22° Northeast  Level Estimated
08:11PM 36.1000 -79.9333 22° Northeast  Level FlightAware Approximate